ADDS METAR Data INFO
IDs: Format: Raw Decoded Include TAF

Data at: 1519 UTC 23 Oct 2017

KHOE 231515Z AUTO 19008G14KT 5SM RA SCT010 BKN018 OVC028 23/23 A2999 RMK AO2
KHOE 231455Z AUTO 17011G18KT 2SM +RA SCT009 OVC013 23/23 A2999 RMK AO2
KHOE 231435Z AUTO 17012KT 5SM RA BKN012 OVC018 24/22 A2999 RMK AO2
KHOE 231415Z AUTO 16008KT 5SM BR SCT010 OVC016 23/22 A3000 RMK AO2
KHOE 231355Z AUTO 16007KT 7SM -RA SCT009 OVC017 23/22 A3000 RMK AO2
KHOE 231335Z AUTO 16007KT 5SM BR BKN017 BKN080 23/22 A3000 RMK AO2
KHOE 231315Z AUTO 16007KT 5SM -RA SCT017 SCT025 SCT031 23/22 A3000 RMK AO2
KHOE 231255Z AUTO 16008KT 5SM -RA SCT014 BKN029 OVC110 23/22 A3000 RMK AO2
KHOE 231235Z AUTO 16007KT 7SM SCT090 BKN120 23/22 A3000 RMK AO2
KHOE 231215Z AUTO 16007KT 7SM SCT120 23/22 A3000 RMK AO2
KHOE 231155Z AUTO 15008KT 7SM SCT070 23/22 A3001 RMK AO2
KHOE 231135Z AUTO 15009KT 7SM SCT060 SCT070 BKN080 23/22 A3001 RMK AO2
KHOE 231115Z AUTO 16006KT 7SM SCT043 SCT050 BKN060 23/22 A3001 RMK AO2
KHOE 231055Z AUTO 15007KT 7SM SCT043 SCT050 BKN060 23/22 A3001 RMK AO2
KHOE 231035Z AUTO 15007G14KT 7SM SCT060 SCT070 23/22 A3001 RMK AO2
KHOE 231015Z AUTO 15009KT 7SM SCT060 SCT085 23/22 A3001 RMK AO2
KHOE 230955Z AUTO 15009KT 7SM SCT042 SCT050 SCT060 23/22 A3001 RMK AO2
KHOE 230935Z AUTO 15009KT 7SM SCT042 BKN050 BKN065 23/22 A3001 RMK AO2
KHOE 230915Z AUTO 16007KT 7SM BKN040 BKN050 OVC065 23/22 A3001 RMK AO2
KHOE 230855Z AUTO 15007KT 7SM BKN038 BKN047 BKN075 23/22 A3001 RMK AO2
KHOE 230835Z AUTO 15007KT 7SM SCT038 BKN047 BKN110 23/22 A3002 RMK AO2
KHOE 230815Z AUTO 14007KT 7SM BKN038 OVC100 23/22 A3003 RMK AO2
KHOE 230755Z AUTO 14007KT 7SM SCT040 SCT075 OVC110 23/22 A3004 RMK AO2
KHOE 230735Z AUTO 14006KT 7SM BKN042 OVC075 23/22 A3005 RMK AO2
KHOE 230715Z AUTO 14007KT 7SM BKN042 BKN060 OVC075 23/22 A3005 RMK AO2
KHOE 230700Z AUTO 14006KT 7SM SCT060 BKN075 OVC095 23/22 A3006 RMK AO2
KHOE 230635Z AUTO 14006KT 7SM SCT014 SCT050 OVC095 23/22 A3006 RMK AO2
KHOE 230615Z AUTO 14006KT 5SM RA SCT022 BKN048 OVC085 23/22 A3006 RMK AO2
KHOE 230555Z AUTO 12004KT 4SM -RA SCT011 BKN048 OVC055 23/22 A3007 RMK AO2
KHOE 230535Z AUTO 14005KT 5SM RA SCT015 BKN048 OVC090 23/22 A3008 RMK AO2
KHOE 230515Z AUTO 13004KT 7SM SCT007 BKN050 OVC095 23/22 A3008 RMK AO2
KHOE 230455Z AUTO 12004KT 7SM BKN007 BKN060 OVC095 23/22 A3009 RMK AO2
KHOE 230435Z AUTO 12004KT 10SM BKN009 OVC095 23/22 A3009 RMK AO2
KHOE 230415Z AUTO 12005KT 10SM BKN009 BKN015 OVC095 23/22 A3010 RMK AO2
KHOE 230355Z AUTO 13004KT 10SM BKN008 OVC015 23/22 A3010 RMK AO2
KHOE 230335Z AUTO 14006KT 10SM OVC010 23/22 A3011 RMK AO2
KHOE 230315Z AUTO 11004KT 10SM BKN010 BKN042 OVC070 23/22 A3011 RMK AO2
KHOE 230255Z AUTO 12005KT 10SM BKN012 OVC070 23/22 A3010 RMK AO2
KHOE 230235Z AUTO 12005KT 10SM OVC012 23/22 A3010 RMK AO2
KHOE 230215Z AUTO 12006KT 10SM BKN012 23/22 A3010 RMK AO2
KHOE 230155Z AUTO 12005KT 10SM SCT009 SCT070 23/22 A3010 RMK AO2
KHOE 230135Z AUTO 10005KT 10SM BKN009 BKN070 23/22 A3010 RMK AO2
KHOE 230115Z AUTO 10005KT 10SM BKN009 23/22 A3010 RMK AO2
KHOE 230055Z AUTO 11005KT 10SM SCT009 23/22 A3010 RMK AO2
KHOE 230035Z AUTO 10004KT 10SM CLR 23/21 A3010 RMK AO2
KHOE 230015Z AUTO 10003KT 10SM CLR 23/21 A3010 RMK AO2
KHOE 222355Z AUTO 10004KT 10SM CLR 23/21 A3010 RMK AO2
KHOE 222335Z AUTO 10003KT 10SM SCT110 23/21 A3009 RMK AO2
KHOE 222315Z AUTO 10003KT 10SM CLR 23/21 A3009 RMK AO2
KHOE 222255Z AUTO 10004KT 10SM CLR 24/21 A3009 RMK AO2
KHOE 222235Z AUTO 10006KT 10SM SCT070 SCT085 25/21 A3008 RMK AO2
KHOE 222215Z AUTO 10005KT 10SM SCT050 BKN070 BKN085 25/22 A3009 RMK AO2
KHOE 222155Z AUTO 11005KT 10SM SCT039 SCT046 BKN050 26/21 A3009 RMK AO2
KHOE 222135Z AUTO 13011G18KT 10SM SCT039 SCT047 28/21 A3009 RMK AO2
KHOE 222115Z AUTO 13005KT 10SM CLR 30/20 A3009 RMK AO2
KHOE 222055Z AUTO 10004KT 10SM SCT070 SCT080 28/20 A3009 RMK AO2
KHOE 222035Z AUTO 11004KT 10SM SCT065 SCT080 30/20 A3009 RMK AO2
KHOE 222015Z AUTO 10004KT 10SM CLR 30/20 A3010 RMK AO2
KHOE 221955Z AUTO 08005KT 10SM SCT043 SCT050 SCT065 30/20 A3010 RMK AO2
KHOE 221935Z AUTO 10004KT 10SM SCT044 SCT060 SCT075 30/20 A3011 RMK AO2
KHOE 221915Z AUTO 10005KT 10SM SCT044 SCT060 SCT075 30/20 A3011 RMK AO2
KHOE 221855Z AUTO 14005KT 10SM SCT035 SCT048 BKN060 28/20 A3012 RMK AO2
KHOE 221835Z AUTO 11005KT 10SM SCT035 BKN043 BKN048 29/20 A3013 RMK AO2
KHOE 221815Z AUTO 11009KT 060V120 10SM SCT035 SCT043 BKN050 28/20 A3014 RMK AO2
KHOE 221755Z AUTO 14007KT 10SM SCT035 SCT043 BKN050 29/20 A3015 RMK AO2
KHOE 221735Z AUTO 13006KT 10SM SCT035 SCT042 28/20 A3016 RMK AO2
KHOE 221715Z AUTO 13009G14KT 10SM SCT027 SCT046 28/20 A3016 RMK AO2
KHOE 221655Z AUTO 13009KT 10SM SCT027 SCT036 BKN044 28/20 A3018 RMK AO2
KHOE 221635Z AUTO 12007KT 10SM SCT023 SCT029 BKN036 27/21 A3018 RMK AO2
KHOE 221615Z AUTO 09009KT 10SM SCT025 BKN030 BKN038 28/21 A3019 RMK AO2
KHOE 221555Z AUTO 12007KT 10SM SCT023 SCT030 BKN037 27/21 A3020 RMK AO2
KHOE 221535Z AUTO 10006KT 10SM BKN021 BKN033 26/21 A3020 RMK AO2
KHOE 221515Z AUTO 10008G14KT 10SM SCT019 26/21 A3021 RMK AO2
KHOE 221455Z AUTO 11006KT 10SM CLR 26/21 A3021 RMK AO2
KHOE 221435Z AUTO 09007KT 10SM CLR 25/21 A3022 RMK AO2
KHOE 221415Z AUTO 10006KT 10SM CLR 23/21 A3022 RMK AO2
KHOE 221355Z AUTO 09005KT 10SM CLR 23/21 A3022 RMK AO2
KHOE 221335Z AUTO 09005KT 10SM SCT075 22/21 A3022 RMK AO2
KHOE 221315Z AUTO 07004KT 10SM OVC075 21/20 A3022 RMK AO2
KHOE 221255Z AUTO 08003KT 10SM SCT060 OVC075 21/20 A3021 RMK AO2
KHOE 221235Z AUTO 00000KT 10SM SCT060 BKN075 20/20 A3021 RMK AO2
KHOE 221215Z AUTO 00000KT 10SM SCT050 20/20 A3020 RMK AO2
KHOE 221155Z AUTO 00000KT 10SM SCT050 20/20 A3020 RMK AO2
KHOE 221135Z AUTO 07003KT 10SM OVC050 20/20 A3019 RMK AO2
KHOE 221115Z AUTO 00000KT 10SM BKN050 20/20 A3019 RMK AO2
KHOE 221055Z AUTO 06003KT 10SM BKN050 20/20 A3018 RMK AO2
KHOE 221035Z AUTO 06004KT 10SM SCT050 20/19 A3018 RMK AO2
KHOE 221015Z AUTO 08004KT 10SM SCT055 20/20 A3018 RMK AO2
KHOE 220955Z AUTO 10004KT 10SM SCT041 OVC060 20/20 A3018 RMK AO2
KHOE 220935Z AUTO 12003KT 10SM BKN041 OVC060 20/20 A3018 RMK AO2
KHOE 220915Z AUTO 07006KT 040V100 10SM BKN040 OVC047 20/20 A3017 RMK AO2
KHOE 220855Z AUTO 09007KT 7SM SCT024 SCT042 OVC049 20/19 A3018 RMK AO2
KHOE 220835Z AUTO 09005KT 10SM BKN050 BKN070 20/19 A3018 RMK AO2
KHOE 220815Z AUTO 08004KT 10SM BKN048 BKN060 BKN065 20/19 A3017 RMK AO2
KHOE 220755Z AUTO 07003KT 10SM OVC050 20/19 A3018 RMK AO2
KHOE 220735Z AUTO 05003KT 10SM BKN050 19/19 A3018 RMK AO2
KHOE 220715Z AUTO 06004KT 10SM SCT003 SCT060 19/19 A3019 RMK AO2
KHOE 220655Z AUTO 06003KT 10SM SCT060 19/19 A3019 RMK AO2
KHOE 220635Z AUTO 07003KT 10SM CLR 19/19 A3020 RMK AO2
KHOE 220615Z AUTO 05003KT 10SM CLR 19/19 A3020 RMK AO2
KHOE 220555Z AUTO 00000KT 10SM CLR 19/19 A3021 RMK AO2
KHOE 220535Z AUTO 00000KT 10SM CLR 20/19 A3021 RMK AO2
KHOE 220515Z AUTO 07003KT 10SM SCT050 20/19 A3021 RMK AO2
KHOE 220455Z AUTO 00000KT 10SM SCT050 20/19 A3022 RMK AO2
KHOE 220435Z AUTO 06003KT 10SM SCT055 20/19 A3022 RMK AO2
KHOE 220415Z AUTO 07003KT 10SM BKN055 20/20 A3022 RMK AO2
KHOE 220355Z AUTO 07004KT 10SM CLR 20/19 A3022 RMK AO2
KHOE 220335Z AUTO 07004KT 10SM CLR 20/19 A3023 RMK AO2